Time;durP1;ratioP1;P1;durP2;ratioP2;P2;SDS_P1;SDS_P2;PMS_P1;PMS_P2;Temp;Humidity;BMP_temperature;BMP_pressure;BME280_temperature;BME280_humidity;BME280_pressure;Samples;Min_cycle;Max_cycle;Signal;HPM_P1;HPM_P2
2022/03/26 00:02:13;;;;;;;40.77;22.60;;;;;;;;;;5072377;28;20483;-71
2022/03/26 00:04:40;;;;;;;43.50;24.00;;;;;;;;;;5072248;28;20447;-71
2022/03/26 00:07:07;;;;;;;39.17;21.37;;;;;;;;;;5072207;28;20451;-71
2022/03/26 00:09:34;;;;;;;37.90;22.87;;;;;;;;;;5072391;28;20823;-71
2022/03/26 00:12:03;;;;;;;44.20;21.67;;;;;;;;;;5072431;28;20452;-71
2022/03/26 00:14:30;;;;;;;39.10;21.87;;;;;;;;;;5072215;28;20479;-69
2022/03/26 00:16:58;;;;;;;39.97;21.77;;;;;;;;;;5072233;28;20456;-69
2022/03/26 00:19:25;;;;;;;50.53;28.40;;;;;;;;;;5072287;28;20465;-69
2022/03/26 00:21:52;;;;;;;43.70;24.47;;;;;;;;;;5072260;28;20468;-71
2022/03/26 00:24:19;;;;;;;51.73;26.20;;;;;;;;;;5072303;28;20479;-71
2022/03/26 00:26:47;;;;;;;46.10;25.33;;;;;;;;;;5075966;28;20835;-71
2022/03/26 00:29:15;;;;;;;38.40;22.57;;;;;;;;;;5075761;28;20479;-71
2022/03/26 00:31:42;;;;;;;46.13;24.60;;;;;;;;;;5075901;28;20826;-71
2022/03/26 00:34:09;;;;;;;38.20;21.00;;;;;;;;;;5075501;28;20440;-71
2022/03/26 00:36:37;;;;;;;50.07;25.00;;;;;;;;;;5075850;28;20494;-71
2022/03/26 00:39:04;;;;;;;43.70;21.70;;;;;;;;;;5075513;28;20479;-69
2022/03/26 00:41:32;;;;;;;44.40;23.57;;;;;;;;;;5075181;28;20486;-68
2022/03/26 00:43:59;;;;;;;36.87;21.50;;;;;;;;;;5075117;28;20535;-71
2022/03/26 00:46:27;;;;;;;51.70;24.37;;;;;;;;;;5075516;28;20451;-70
2022/03/26 00:48:56;;;;;;;45.77;24.43;;;;;;;;;;5075346;28;20892;-69
2022/03/26 00:51:23;;;;;;;47.27;24.40;;;;;;;;;;5075569;28;20487;-69
2022/03/26 00:53:50;;;;;;;44.23;23.10;;;;;;;;;;5075137;28;20448;-69
2022/03/26 00:56:17;;;;;;;57.57;22.07;;;;;;;;;;5075149;28;20455;-69
2022/03/26 00:58:44;;;;;;;38.80;21.70;;;;;;;;;;5075412;28;20474;-69
2022/03/26 01:01:12;;;;;;;47.67;24.57;;;;;;;;;;5075363;28;20961;-69
2022/03/26 01:03:40;;;;;;;53.17;25.80;;;;;;;;;;5075036;28;20491;-69
2022/03/26 01:06:07;;;;;;;43.00;24.27;;;;;;;;;;5074951;28;20937;-69
2022/03/26 01:08:34;;;;;;;43.60;22.87;;;;;;;;;;5075171;28;20475;-69
2022/03/26 01:11:01;;;;;;;46.47;24.37;;;;;;;;;;5074939;28;20534;-69
2022/03/26 01:13:30;;;;;;;46.03;22.70;;;;;;;;;;5075065;28;20812;-69
2022/03/26 01:15:57;;;;;;;40.67;23.30;;;;;;;;;;5074825;28;20451;-69
2022/03/26 01:18:24;;;;;;;44.03;24.70;;;;;;;;;;5075028;28;21049;-69
2022/03/26 01:20:52;;;;;;;44.77;21.63;;;;;;;;;;5075010;28;20798;-69
2022/03/26 01:23:20;;;;;;;41.00;22.63;;;;;;;;;;5074543;28;20494;-69
2022/03/26 01:25:47;;;;;;;43.93;24.60;;;;;;;;;;5074571;28;20484;-69
2022/03/26 01:28:14;;;;;;;42.87;23.87;;;;;;;;;;5074665;28;20483;-69
2022/03/26 01:30:41;;;;;;;45.70;21.50;;;;;;;;;;5074790;28;20447;-69
2022/03/26 01:33:08;;;;;;;46.33;22.10;;;;;;;;;;5074545;28;20451;-69
2022/03/26 01:35:35;;;;;;;46.63;23.63;;;;;;;;;;5074493;28;21031;-69
2022/03/26 01:38:05;;;;;;;40.20;22.63;;;;;;;;;;5073605;28;20487;-69
2022/03/26 01:40:33;;;;;;;43.67;22.87;;;;;;;;;;5074549;28;20494;-69
2022/03/26 01:43:00;;;;;;;40.20;24.80;;;;;;;;;;5074245;28;20487;-69
2022/03/26 01:45:28;;;;;;;51.50;26.30;;;;;;;;;;5074198;28;20452;-69
2022/03/26 01:47:55;;;;;;;44.87;25.60;;;;;;;;;;5074273;28;20476;-69
2022/03/26 01:50:23;;;;;;;47.67;23.70;;;;;;;;;;5074379;28;21046;-69
2022/03/26 01:52:50;;;;;;;45.10;26.67;;;;;;;;;;5074076;28;20998;-69
2022/03/26 01:55:19;;;;;;;40.53;23.60;;;;;;;;;;5073969;28;20452;-69
2022/03/26 01:57:46;;;;;;;44.90;24.90;;;;;;;;;;5074089;28;20472;-69
2022/03/26 02:00:13;;;;;;;42.37;25.03;;;;;;;;;;5074092;28;20937;-70
2022/03/26 02:02:43;;;;;;;42.13;24.60;;;;;;;;;;5074044;28;20831;-70
2022/03/26 02:05:10;;;;;;;41.53;23.70;;;;;;;;;;5073629;28;20463;-69
2022/03/26 02:07:38;;;;;;;45.17;25.10;;;;;;;;;;5073842;28;20897;-69
2022/03/26 02:10:06;;;;;;;45.83;25.30;;;;;;;;;;5074164;28;20456;-69
2022/03/26 02:12:34;;;;;;;50.30;26.07;;;;;;;;;;5074060;28;20451;-69
2022/03/26 02:15:02;;;;;;;45.17;26.37;;;;;;;;;;5073742;28;20443;-70
2022/03/26 02:17:29;;;;;;;42.10;24.40;;;;;;;;;;5073756;28;20482;-70
2022/03/26 02:19:58;;;;;;;51.67;27.90;;;;;;;;;;5073575;28;20454;-70
2022/03/26 02:22:25;;;;;;;42.77;25.87;;;;;;;;;;5073714;28;20455;-70
2022/03/26 02:24:53;;;;;;;50.40;24.27;;;;;;;;;;5073274;28;20498;-70
2022/03/26 02:27:20;;;;;;;41.63;22.47;;;;;;;;;;5073637;28;20822;-70
2022/03/26 02:29:47;;;;;;;47.13;22.57;;;;;;;;;;5073551;28;20960;-70
2022/03/26 02:32:14;;;;;;;47.63;23.27;;;;;;;;;;5073374;28;20455;-70
2022/03/26 02:34:42;;;;;;;40.50;23.57;;;;;;;;;;5073227;28;20462;-69
2022/03/26 02:37:10;;;;;;;44.17;22.50;;;;;;;;;;5073178;28;20967;-69
2022/03/26 02:39:37;;;;;;;41.43;22.37;;;;;;;;;;5073443;28;20452;-70
2022/03/26 02:42:05;;;;;;;47.13;24.53;;;;;;;;;;5072780;28;20452;-70
2022/03/26 02:44:32;;;;;;;40.40;24.50;;;;;;;;;;5073184;28;20488;-70
2022/03/26 02:46:59;;;;;;;46.60;23.87;;;;;;;;;;5073181;28;20455;-70
2022/03/26 02:49:26;;;;;;;48.90;24.97;;;;;;;;;;5073136;28;20972;-70
2022/03/26 02:51:53;;;;;;;48.90;24.57;;;;;;;;;;5073120;28;20454;-70
2022/03/26 02:54:22;;;;;;;44.30;25.23;;;;;;;;;;5072836;28;20452;-70
2022/03/26 02:56:49;;;;;;;38.47;23.60;;;;;;;;;;5073186;28;20807;-70
2022/03/26 02:59:16;;;;;;;43.80;24.43;;;;;;;;;;5073109;28;20470;-70
2022/03/26 03:01:44;;;;;;;47.10;23.40;;;;;;;;;;5073095;28;20454;-70
2022/03/26 03:04:11;;;;;;;39.00;24.07;;;;;;;;;;5072921;28;20487;-70
2022/03/26 03:06:38;;;;;;;56.60;28.47;;;;;;;;;;5073210;28;20452;-70
2022/03/26 03:09:06;;;;;;;41.33;24.80;;;;;;;;;;5073003;28;20818;-70
2022/03/26 03:11:35;;;;;;;53.27;25.30;;;;;;;;;;5073027;28;20853;-70
2022/03/26 03:14:02;;;;;;;42.37;22.70;;;;;;;;;;5072531;28;20444;-70
2022/03/26 03:16:29;;;;;;;49.57;25.10;;;;;;;;;;5073234;28;20452;-70
2022/03/26 03:18:56;;;;;;;46.43;24.90;;;;;;;;;;5072913;28;20468;-70
2022/03/26 03:21:23;;;;;;;51.77;25.03;;;;;;;;;;5072888;28;20945;-70
2022/03/26 03:23:51;;;;;;;44.30;24.07;;;;;;;;;;5072570;28;20487;-70
2022/03/26 03:26:18;;;;;;;43.77;23.20;;;;;;;;;;5072737;28;20454;-70
2022/03/26 03:28:46;;;;;;;43.83;24.03;;;;;;;;;;5072688;28;20483;-70
2022/03/26 03:31:13;;;;;;;60.53;25.80;;;;;;;;;;5072820;28;20821;-70
2022/03/26 03:33:40;;;;;;;44.73;23.97;;;;;;;;;;5072635;28;20451;-69
2022/03/26 03:36:08;;;;;;;55.97;25.13;;;;;;;;;;5072818;28;20444;-69
2022/03/26 03:38:35;;;;;;;49.70;25.00;;;;;;;;;;5072920;28;20976;-69
2022/03/26 03:41:02;;;;;;;48.63;23.70;;;;;;;;;;5072040;28;21015;-69
2022/03/26 03:43:29;;;;;;;47.63;24.17;;;;;;;;;;5072630;28;20483;-69
2022/03/26 03:45:57;;;;;;;45.37;23.73;;;;;;;;;;5072513;28;20458;-69
2022/03/26 03:48:24;;;;;;;45.73;22.77;;;;;;;;;;5072469;28;20464;-70
2022/03/26 03:50:51;;;;;;;45.03;24.20;;;;;;;;;;5072644;28;20464;-69
2022/03/26 03:53:18;;;;;;;47.97;24.50;;;;;;;;;;5072677;28;20459;-69
2022/03/26 03:55:46;;;;;;;40.10;23.87;;;;;;;;;;5072359;28;20456;-70
2022/03/26 03:58:13;;;;;;;49.20;25.43;;;;;;;;;;5072346;28;20468;-70
2022/03/26 04:00:40;;;;;;;40.23;22.40;;;;;;;;;;5074803;28;20940;-70
2022/03/26 04:03:08;;;;;;;46.73;22.97;;;;;;;;;;5076197;28;20451;-69
2022/03/26 04:05:35;;;;;;;53.27;26.23;;;;;;;;;;5076300;28;20448;-69
2022/03/26 04:08:02;;;;;;;42.37;22.90;;;;;;;;;;5076224;28;20991;-69
2022/03/26 04:10:29;;;;;;;39.57;21.63;;;;;;;;;;5076250;28;20443;-69
2022/03/26 04:12:57;;;;;;;51.93;25.00;;;;;;;;;;5076027;28;20455;-69
2022/03/26 04:15:24;;;;;;;59.20;28.17;;;;;;;;;;5075887;28;20451;-69
2022/03/26 04:17:52;;;;;;;60.77;25.37;;;;;;;;;;5075846;28;20478;-69
2022/03/26 04:20:20;;;;;;;46.03;26.23;;;;;;;;;;5076072;28;20459;-69
2022/03/26 04:22:47;;;;;;;57.23;24.70;;;;;;;;;;5075830;28;20485;-69
2022/03/26 04:25:15;;;;;;;46.97;26.37;;;;;;;;;;5075602;28;20498;-70
2022/03/26 04:27:46;;;;;;;55.93;26.80;;;;;;;;;;5075904;28;20474;-69
2022/03/26 04:30:13;;;;;;;57.60;27.90;;;;;;;;;;5075803;28;20475;-69
2022/03/26 04:32:41;;;;;;;47.03;24.47;;;;;;;;;;5075709;28;20451;-69
2022/03/26 04:35:09;;;;;;;57.73;25.70;;;;;;;;;;5075345;28;20827;-69
2022/03/26 04:37:37;;;;;;;43.40;24.67;;;;;;;;;;5075807;28;20475;-69
2022/03/26 04:40:05;;;;;;;54.43;26.47;;;;;;;;;;5075759;28;20448;-69
2022/03/26 04:42:32;;;;;;;52.23;25.50;;;;;;;;;;5075414;28;20459;-70
2022/03/26 04:44:59;;;;;;;46.70;26.07;;;;;;;;;;5075374;28;20495;-69
2022/03/26 04:47:26;;;;;;;60.93;25.60;;;;;;;;;;5075507;28;20498;-69
2022/03/26 04:49:54;;;;;;;52.00;26.60;;;;;;;;;;5075460;28;20933;-70
2022/03/26 04:52:21;;;;;;;46.80;24.20;;;;;;;;;;5075641;28;20818;-70
2022/03/26 04:54:49;;;;;;;57.70;29.73;;;;;;;;;;5075142;28;20443;-70
2022/03/26 04:57:17;;;;;;;57.70;29.10;;;;;;;;;;5075163;28;20456;-70
2022/03/26 04:59:45;;;;;;;51.60;27.53;;;;;;;;;;5075410;28;20451;-70
2022/03/26 05:02:12;;;;;;;69.13;32.93;;;;;;;;;;5075094;28;20864;-70
2022/03/26 05:04:39;;;;;;;57.97;32.00;;;;;;;;;;5075042;28;20498;-69
2022/03/26 05:09:47;;;;;;;50.93;25.80;;;;;;;;;;5074819;28;20777;-69
2022/03/26 05:12:17;;;;;;;55.60;26.77;;;;;;;;;;5074930;28;20496;-69
2022/03/26 05:14:44;;;;;;;50.00;27.00;;;;;;;;;;5074833;28;20436;-69
2022/03/26 05:17:11;;;;;;;48.50;27.00;;;;;;;;;;5074959;28;20994;-70
2022/03/26 05:19:38;;;;;;;44.60;23.00;;;;;;;;;;5075017;28;20451;-70
2022/03/26 05:22:06;;;;;;;53.67;25.63;;;;;;;;;;5074762;28;20467;-70
2022/03/26 05:24:33;;;;;;;48.10;25.60;;;;;;;;;;5074905;28;20484;-69
2022/03/26 05:27:00;;;;;;;51.00;23.83;;;;;;;;;;5074668;28;20502;-69
2022/03/26 05:29:29;;;;;;;42.83;23.63;;;;;;;;;;5074574;28;20491;-69
2022/03/26 05:31:56;;;;;;;42.40;23.10;;;;;;;;;;5074537;28;20870;-69
2022/03/26 05:34:23;;;;;;;49.70;26.80;;;;;;;;;;5074370;28;20455;-69
2022/03/26 05:36:51;;;;;;;60.90;29.60;;;;;;;;;;5074535;28;20479;-70
2022/03/26 05:39:18;;;;;;;50.73;28.70;;;;;;;;;;5074367;28;20503;-70
2022/03/26 05:41:45;;;;;;;38.03;24.23;;;;;;;;;;5074381;28;20936;-70
2022/03/26 05:44:12;;;;;;;43.17;24.67;;;;;;;;;;5074055;28;20488;-70
2022/03/26 05:46:40;;;;;;;45.60;24.73;;;;;;;;;;5074335;28;20462;-70
2022/03/26 05:49:07;;;;;;;45.23;26.73;;;;;;;;;;5073733;28;20476;-69
2022/03/26 05:51:34;;;;;;;45.77;26.53;;;;;;;;;;5074222;28;20794;-70
2022/03/26 05:54:02;;;;;;;45.73;25.77;;;;;;;;;;5073876;28;20867;-69
2022/03/26 05:56:29;;;;;;;46.17;24.17;;;;;;;;;;5073834;28;20487;-70
2022/03/26 05:58:56;;;;;;;44.43;25.23;;;;;;;;;;5074025;28;20472;-70
2022/03/26 06:01:23;;;;;;;48.83;25.70;;;;;;;;;;5074125;28;20452;-70
2022/03/26 06:03:51;;;;;;;48.80;24.50;;;;;;;;;;5073706;28;20458;-69
2022/03/26 06:06:18;;;;;;;40.60;25.37;;;;;;;;;;5073948;28;20447;-69
2022/03/26 06:08:46;;;;;;;50.83;25.40;;;;;;;;;;5073844;28;20482;-70
2022/03/26 06:11:13;;;;;;;44.47;24.20;;;;;;;;;;5073737;28;20466;-70
2022/03/26 06:13:40;;;;;;;42.57;23.67;;;;;;;;;;5073660;28;20467;-69
2022/03/26 06:16:07;;;;;;;42.03;23.50;;;;;;;;;;5073851;28;20937;-70
2022/03/26 06:18:34;;;;;;;45.67;25.87;;;;;;;;;;5073648;28;20537;-70
2022/03/26 06:21:05;;;;;;;44.83;26.30;;;;;;;;;;5073846;28;20459;-70
2022/03/26 06:23:32;;;;;;;41.57;23.60;;;;;;;;;;5073022;28;20474;-70
2022/03/26 06:25:59;;;;;;;51.17;24.47;;;;;;;;;;5073599;28;20491;-70
2022/03/26 06:28:26;;;;;;;43.50;26.07;;;;;;;;;;5073537;28;20468;-70
2022/03/26 06:30:54;;;;;;;36.00;25.00;;;;;;;;;;5073601;28;20455;-70
2022/03/26 06:33:22;;;;;;;39.83;24.60;;;;;;;;;;5073713;28;20456;-70
2022/03/26 06:35:49;;;;;;;42.93;28.30;;;;;;;;;;5073258;28;20937;-70
2022/03/26 06:38:18;;;;;;;42.27;26.20;;;;;;;;;;5073305;28;20478;-70
2022/03/26 06:40:45;;;;;;;38.53;24.63;;;;;;;;;;5072976;28;20463;-70
2022/03/26 06:43:12;;;;;;;43.70;25.37;;;;;;;;;;5073453;28;20466;-70
2022/03/26 06:45:40;;;;;;;40.73;27.53;;;;;;;;;;5073077;28;20487;-70
2022/03/26 06:48:08;;;;;;;32.47;24.70;;;;;;;;;;5073149;28;20972;-70
2022/03/26 06:50:35;;;;;;;41.90;27.30;;;;;;;;;;5073084;28;20458;-71
2022/03/26 06:53:02;;;;;;;40.20;26.63;;;;;;;;;;5073236;28;20448;-72
2022/03/26 06:55:30;;;;;;;36.03;26.83;;;;;;;;;;5073467;28;20458;-73
2022/03/26 06:57:57;;;;;;;40.40;29.53;;;;;;;;;;5073153;28;20472;-73
2022/03/26 07:00:24;;;;;;;34.10;26.67;;;;;;;;;;5073290;28;20451;-73
2022/03/26 07:02:52;;;;;;;38.77;28.87;;;;;;;;;;5073315;28;20937;-72
2022/03/26 07:05:20;;;;;;;38.93;28.00;;;;;;;;;;5073029;28;20498;-73
2022/03/26 07:07:47;;;;;;;42.00;27.63;;;;;;;;;;5072952;28;20549;-71
2022/03/26 07:10:14;;;;;;;35.73;26.43;;;;;;;;;;5072969;28;20466;-71
2022/03/26 07:12:43;;;;;;;37.47;27.30;;;;;;;;;;5073001;28;20452;-71
2022/03/26 07:15:10;;;;;;;33.17;24.73;;;;;;;;;;5072776;28;20451;-70
2022/03/26 07:17:39;;;;;;;35.70;24.97;;;;;;;;;;5072868;28;20472;-71
2022/03/26 07:20:07;;;;;;;39.53;26.27;;;;;;;;;;5072951;28;20895;-71
2022/03/26 07:22:35;;;;;;;35.30;24.50;;;;;;;;;;5073187;28;20478;-71
2022/03/26 07:25:04;;;;;;;37.30;24.93;;;;;;;;;;5072597;28;20530;-71
2022/03/26 07:27:32;;;;;;;33.77;24.33;;;;;;;;;;5072879;28;20479;-71
2022/03/26 07:30:01;;;;;;;41.80;25.30;;;;;;;;;;5072698;28;20494;-71
2022/03/26 07:32:28;;;;;;;35.17;23.70;;;;;;;;;;5072965;28;20447;-71
2022/03/26 07:34:56;;;;;;;43.53;26.90;;;;;;;;;;5073758;28;20452;-71
2022/03/26 07:37:23;;;;;;;37.53;27.23;;;;;;;;;;5076901;28;20936;-71
2022/03/26 07:39:50;;;;;;;37.63;26.10;;;;;;;;;;5076767;28;20455;-71
2022/03/26 07:42:17;;;;;;;40.90;26.50;;;;;;;;;;5084367;28;20515;-71
2022/03/26 07:44:44;;;;;;;36.27;24.50;;;;;;;;;;5085744;28;20526;-71
2022/03/26 07:47:13;;;;;;;38.33;23.77;;;;;;;;;;5085176;28;20809;-71
2022/03/26 07:49:40;;;;;;;38.33;25.50;;;;;;;;;;5087422;28;20447;-71
2022/03/26 07:52:07;;;;;;;30.03;22.30;;;;;;;;;;5086084;28;20458;-73
2022/03/26 07:54:35;;;;;;;36.97;24.53;;;;;;;;;;5085268;28;20551;-70
2022/03/26 07:57:02;;;;;;;33.63;24.20;;;;;;;;;;5096661;28;20454;-70
2022/03/26 07:59:29;;;;;;;39.77;27.27;;;;;;;;;;5096749;28;20474;-70
2022/03/26 08:01:56;;;;;;;41.73;28.03;;;;;;;;;;5096877;28;20457;-70
2022/03/26 08:04:24;;;;;;;39.67;27.40;;;;;;;;;;5096588;28;20815;-70
2022/03/26 08:06:52;;;;;;;39.90;24.53;;;;;;;;;;5096734;28;20495;-70
2022/03/26 08:09:19;;;;;;;40.93;25.00;;;;;;;;;;5096762;28;20485;-70
2022/03/26 08:11:46;;;;;;;39.40;24.23;;;;;;;;;;5096430;28;20451;-71
2022/03/26 08:14:13;;;;;;;36.73;25.60;;;;;;;;;;5096385;28;20450;-71
2022/03/26 08:16:40;;;;;;;40.50;24.20;;;;;;;;;;5096392;28;20520;-70
2022/03/26 08:19:08;;;;;;;42.40;25.30;;;;;;;;;;5096223;28;21002;-72
2022/03/26 08:21:36;;;;;;;41.43;26.67;;;;;;;;;;5096292;28;20466;-72
2022/03/26 08:24:03;;;;;;;33.57;22.20;;;;;;;;;;5096290;28;20458;-71
2022/03/26 08:26:31;;;;;;;37.63;23.57;;;;;;;;;;5096552;28;20486;-71
2022/03/26 08:28:58;;;;;;;42.23;26.93;;;;;;;;;;5096401;28;20466;-72
2022/03/26 08:31:26;;;;;;;39.43;24.47;;;;;;;;;;5096074;28;20446;-72
2022/03/26 08:33:54;;;;;;;38.27;23.83;;;;;;;;;;5096004;28;20461;-71
2022/03/26 08:36:22;;;;;;;39.00;25.03;;;;;;;;;;5096109;28;20927;-71
2022/03/26 08:38:50;;;;;;;39.07;26.43;;;;;;;;;;5095754;28;20477;-72
2022/03/26 08:41:19;;;;;;;42.77;26.50;;;;;;;;;;5095582;28;20451;-71
2022/03/26 08:43:46;;;;;;;38.60;23.80;;;;;;;;;;5095940;28;20855;-71
2022/03/26 08:46:13;;;;;;;36.40;23.13;;;;;;;;;;5095151;28;20489;-71
2022/03/26 08:48:40;;;;;;;36.53;23.93;;;;;;;;;;5095710;28;20474;-71
2022/03/26 08:51:07;;;;;;;39.17;25.57;;;;;;;;;;5095516;28;20823;-71
2022/03/26 08:53:35;;;;;;;39.40;25.33;;;;;;;;;;5095477;28;20451;-71
2022/03/26 08:56:04;;;;;;;41.63;25.03;;;;;;;;;;5095673;28;20442;-71
2022/03/26 08:58:32;;;;;;;36.70;25.10;;;;;;;;;;5095657;28;20470;-71
2022/03/26 09:00:59;;;;;;;37.80;25.10;;;;;;;;;;5095617;28;20450;-71
2022/03/26 09:03:26;;;;;;;35.60;24.23;;;;;;;;;;5095539;28;20454;-71
2022/03/26 09:05:54;;;;;;;40.03;25.13;;;;;;;;;;5095257;28;20846;-71
2022/03/26 09:08:21;;;;;;;38.33;24.83;;;;;;;;;;5095274;28;20474;-71
2022/03/26 09:10:48;;;;;;;42.90;23.87;;;;;;;;;;5095365;28;20948;-71
2022/03/26 09:13:17;;;;;;;40.50;23.47;;;;;;;;;;5095502;28;20477;-71
2022/03/26 09:15:44;;;;;;;45.20;25.20;;;;;;;;;;5095237;28;20451;-72
2022/03/26 09:18:11;;;;;;;36.30;22.90;;;;;;;;;;5095159;28;20470;-71
2022/03/26 09:20:38;;;;;;;38.67;23.50;;;;;;;;;;5095343;28;20451;-71
2022/03/26 09:23:05;;;;;;;35.90;23.17;;;;;;;;;;5094978;28;20515;-71
2022/03/26 09:25:32;;;;;;;34.97;22.83;;;;;;;;;;5094934;28;20493;-71
2022/03/26 09:27:59;;;;;;;32.53;22.50;;;;;;;;;;5094921;28;20471;-71
2022/03/26 09:30:28;;;;;;;33.77;23.57;;;;;;;;;;5094739;28;20839;-71
2022/03/26 09:32:55;;;;;;;34.90;21.50;;;;;;;;;;5094913;28;20450;-71
2022/03/26 09:35:22;;;;;;;34.67;22.83;;;;;;;;;;5094701;28;20450;-71
2022/03/26 09:37:49;;;;;;;32.13;22.80;;;;;;;;;;5094667;28;20478;-71
2022/03/26 09:40:16;;;;;;;33.57;22.70;;;;;;;;;;5094300;28;20453;-71
2022/03/26 09:42:44;;;;;;;35.80;24.40;;;;;;;;;;5094781;28;20450;-71
2022/03/26 09:45:11;;;;;;;44.63;24.60;;;;;;;;;;5094396;28;20931;-71
2022/03/26 09:47:40;;;;;;;43.70;25.20;;;;;;;;;;5094666;28;20471;-72
2022/03/26 09:50:08;;;;;;;43.03;27.70;;;;;;;;;;5094573;28;20447;-72
2022/03/26 09:52:36;;;;;;;42.57;30.23;;;;;;;;;;5094651;28;20443;-72
2022/03/26 09:55:03;;;;;;;37.90;24.90;;;;;;;;;;5094322;28;20795;-72
2022/03/26 09:57:31;;;;;;;36.90;26.27;;;;;;;;;;5093637;28;20897;-72
2022/03/26 09:59:58;;;;;;;35.27;24.17;;;;;;;;;;5094313;28;20451;-72
2022/03/26 10:02:25;;;;;;;37.67;25.70;;;;;;;;;;5094388;28;21009;-72
2022/03/26 10:04:54;;;;;;;34.63;25.47;;;;;;;;;;5094094;28;20454;-72
2022/03/26 10:07:28;;;;;;;34.80;23.80;;;;;;;;;;5094055;28;21010;-72
2022/03/26 10:09:56;;;;;;;34.13;24.83;;;;;;;;;;5094477;28;20466;-72
2022/03/26 10:12:24;;;;;;;46.93;26.13;;;;;;;;;;5094283;28;20511;-72
2022/03/26 10:14:52;;;;;;;39.50;24.43;;;;;;;;;;5093945;28;20450;-72
2022/03/26 10:17:20;;;;;;;38.40;24.70;;;;;;;;;;5094287;28;20454;-72
2022/03/26 10:19:48;;;;;;;37.73;25.47;;;;;;;;;;5093878;28;20454;-72
2022/03/26 10:22:42;;;;;;;41.13;26.33;;;;;;;;;;5093936;28;20870;-72
2022/03/26 10:25:11;;;;;;;37.57;25.70;;;;;;;;;;5057464;28;20805;-72
2022/03/26 10:27:40;;;;;;;41.23;27.27;;;;;;;;;;5093968;28;20478;-72
2022/03/26 10:30:08;;;;;;;34.17;25.00;;;;;;;;;;5093973;28;20978;-73
2022/03/26 10:32:45;;;;;;;36.33;25.70;;;;;;;;;;5093984;28;20530;-73
2022/03/26 10:35:17;;;;;;;38.57;25.53;;;;;;;;;;5093782;28;20451;-73
2022/03/26 10:37:45;;;;;;;43.50;25.80;;;;;;;;;;5094083;28;20848;-73
2022/03/26 10:40:24;;;;;;;39.70;26.10;;;;;;;;;;5093658;28;20455;-73
2022/03/26 10:42:58;;;;;;;39.23;23.87;;;;;;;;;;5087246;28;20489;-73
2022/03/26 10:45:25;;;;;;;44.43;25.20;;;;;;;;;;5091086;28;20450;-73
2022/03/26 10:47:54;;;;;;;44.37;25.30;;;;;;;;;;5091787;28;20994;-73
2022/03/26 10:50:21;;;;;;;41.37;24.87;;;;;;;;;;5090869;28;20463;-73
2022/03/26 10:52:49;;;;;;;39.33;24.97;;;;;;;;;;5092310;28;20454;-73
2022/03/26 10:55:16;;;;;;;38.43;25.67;;;;;;;;;;5092206;28;20940;-73
2022/03/26 10:57:47;;;;;;;39.60;25.60;;;;;;;;;;5091671;28;20477;-73
2022/03/26 11:00:15;;;;;;;36.10;26.00;;;;;;;;;;5091879;28;20512;-73
2022/03/26 11:02:42;;;;;;;33.70;24.13;;;;;;;;;;5092041;28;20466;-73
2022/03/26 11:05:10;;;;;;;33.83;25.53;;;;;;;;;;5091489;28;20473;-73
2022/03/26 11:07:38;;;;;;;33.20;26.17;;;;;;;;;;5091773;28;20490;-73
2022/03/26 11:10:06;;;;;;;35.93;25.87;;;;;;;;;;5091500;28;20442;-73
2022/03/26 11:12:34;;;;;;;38.40;25.97;;;;;;;;;;5091731;28;20482;-73
2022/03/26 11:15:04;;;;;;;36.83;26.50;;;;;;;;;;5091244;28;20454;-73
2022/03/26 11:17:37;;;;;;;37.63;26.43;;;;;;;;;;5091699;28;20890;-73
2022/03/26 11:20:12;;;;;;;34.43;23.63;;;;;;;;;;5090373;28;20452;-73
2022/03/26 11:22:50;;;;;;;38.77;26.43;;;;;;;;;;5092974;28;20469;-73
2022/03/26 11:25:28;;;;;;;37.90;27.17;;;;;;;;;;5092576;28;20446;-73
2022/03/26 11:28:08;;;;;;;40.90;24.43;;;;;;;;;;5092842;28;20474;-73
2022/03/26 11:30:42;;;;;;;33.73;24.10;;;;;;;;;;5093607;28;20457;-73
2022/03/26 11:33:10;;;;;;;42.07;28.53;;;;;;;;;;5092996;28;20454;-73
2022/03/26 11:35:37;;;;;;;44.67;29.80;;;;;;;;;;5092418;28;20825;-73
2022/03/26 11:38:04;;;;;;;49.50;26.13;;;;;;;;;;5092503;28;20474;-73
2022/03/26 11:40:42;;;;;;;40.70;26.40;;;;;;;;;;5092792;28;20446;-73
2022/03/26 11:43:09;;;;;;;49.77;28.30;;;;;;;;;;5092663;28;20452;-73
2022/03/26 11:51:22;;;;;;;33.27;22.87;;;;;;;;;;5092927;28;20845;-73
2022/03/26 11:53:52;;;;;;;33.13;24.13;;;;;;;;;;5092433;28;20540;-72
2022/03/26 11:56:22;;;;;;;32.50;23.40;;;;;;;;;;5092438;28;20462;-73
2022/03/26 11:58:52;;;;;;;32.60;22.37;;;;;;;;;;5092486;28;20498;-72
2022/03/26 12:01:21;;;;;;;36.23;24.20;;;;;;;;;;5092589;28;20446;-72
2022/03/26 12:03:48;;;;;;;35.47;22.33;;;;;;;;;;5092078;28;20461;-72
2022/03/26 12:06:39;;;;;;;34.97;22.00;;;;;;;;;;5092328;28;21025;-73
2022/03/26 12:09:06;;;;;;;40.80;24.70;;;;;;;;;;5092483;28;20475;-72
2022/03/26 12:11:34;;;;;;;44.30;25.57;;;;;;;;;;5092328;28;20490;-72
2022/03/26 12:14:02;;;;;;;30.57;23.47;;;;;;;;;;5091851;28;20450;-72
2022/03/26 12:16:48;;;;;;;28.30;19.80;;;;;;;;;;5092244;28;20463;-72
2022/03/26 12:19:30;;;;;;;33.13;20.47;;;;;;;;;;5092449;28;20501;-72
2022/03/26 12:21:58;;;;;;;27.70;20.10;;;;;;;;;;5094670;28;20454;-72
2022/03/26 12:24:30;;;;;;;31.53;22.27;;;;;;;;;;5095771;28;20445;-73
2022/03/26 12:26:57;;;;;;;27.70;20.83;;;;;;;;;;5096181;28;21003;-72
2022/03/26 12:29:24;;;;;;;33.40;21.40;;;;;;;;;;5095977;28;20471;-73
2022/03/26 12:31:51;;;;;;;31.33;20.67;;;;;;;;;;5095290;28;20446;-73
2022/03/26 12:34:21;;;;;;;41.10;21.20;;;;;;;;;;5095398;28;20482;-72
2022/03/26 12:36:48;;;;;;;27.80;18.50;;;;;;;;;;5095976;28;20457;-72
2022/03/26 12:39:16;;;;;;;32.80;22.10;;;;;;;;;;5095779;28;20466;-72
2022/03/26 12:41:49;;;;;;;26.63;18.67;;;;;;;;;;5093959;28;20971;-72
2022/03/26 12:44:17;;;;;;;32.07;22.70;;;;;;;;;;5095299;28;20792;-73
2022/03/26 12:46:46;;;;;;;33.10;21.60;;;;;;;;;;5095513;28;20522;-72
2022/03/26 12:49:16;;;;;;;32.27;22.47;;;;;;;;;;5095468;28;20897;-72
2022/03/26 12:51:44;;;;;;;36.13;22.13;;;;;;;;;;5095719;28;20486;-72
2022/03/26 12:54:11;;;;;;;34.00;23.07;;;;;;;;;;5094920;28;20454;-72
2022/03/26 12:56:39;;;;;;;33.60;18.73;;;;;;;;;;5095298;28;20450;-72
2022/03/26 12:59:05;;;;;;;35.50;19.83;;;;;;;;;;5095251;28;20991;-72
2022/03/26 13:01:32;;;;;;;32.53;18.63;;;;;;;;;;5095409;28;21011;-72
2022/03/26 13:03:59;;;;;;;38.43;22.67;;;;;;;;;;5094782;28;20459;-72
2022/03/26 13:06:27;;;;;;;31.27;19.17;;;;;;;;;;5095519;28;20482;-72
2022/03/26 13:08:54;;;;;;;30.53;20.47;;;;;;;;;;5095069;28;20839;-72
2022/03/26 13:11:22;;;;;;;33.30;19.60;;;;;;;;;;5095431;28;20982;-72
2022/03/26 13:13:52;;;;;;;27.27;17.67;;;;;;;;;;5094596;28;20462;-72
2022/03/26 13:16:21;;;;;;;24.70;16.60;;;;;;;;;;5095154;28;20820;-72
2022/03/26 13:18:48;;;;;;;28.37;18.57;;;;;;;;;;5094818;28;20565;-72
2022/03/26 13:21:18;;;;;;;28.40;18.17;;;;;;;;;;5095036;28;20455;-72
2022/03/26 13:23:55;;;;;;;30.70;17.83;;;;;;;;;;5094560;28;20451;-72
2022/03/26 13:26:22;;;;;;;26.10;16.70;;;;;;;;;;5095041;28;20481;-72
2022/03/26 13:28:50;;;;;;;22.90;15.20;;;;;;;;;;5094779;28;20479;-72
2022/03/26 13:31:19;;;;;;;24.43;17.10;;;;;;;;;;5095345;28;20983;-72
2022/03/26 13:33:46;;;;;;;21.80;14.20;;;;;;;;;;5094975;28;20451;-72
2022/03/26 13:36:13;;;;;;;24.77;15.00;;;;;;;;;;5094938;28;20486;-72
2022/03/26 13:38:41;;;;;;;24.97;15.60;;;;;;;;;;5094704;28;20513;-72
2022/03/26 13:41:18;;;;;;;20.20;13.67;;;;;;;;;;5092984;28;20580;-72
2022/03/26 13:43:46;;;;;;;28.30;15.43;;;;;;;;;;5094322;28;20482;-72
2022/03/26 13:46:15;;;;;;;22.47;15.30;;;;;;;;;;5094663;28;20458;-72
2022/03/26 13:48:49;;;;;;;23.50;17.47;;;;;;;;;;5094814;28;20531;-72
2022/03/26 13:51:17;;;;;;;27.53;16.17;;;;;;;;;;5094608;28;20457;-72
2022/03/26 13:53:44;;;;;;;27.50;17.23;;;;;;;;;;5094042;28;20455;-72
2022/03/26 13:56:12;;;;;;;32.10;16.83;;;;;;;;;;5094347;28;20458;-72
2022/03/26 13:58:39;;;;;;;31.10;16.73;;;;;;;;;;5094458;28;20470;-72
2022/03/26 14:01:07;;;;;;;26.57;16.80;;;;;;;;;;5094200;28;20456;-72
2022/03/26 14:03:38;;;;;;;28.80;17.57;;;;;;;;;;5094084;28;20461;-72
2022/03/26 14:06:05;;;;;;;26.77;16.53;;;;;;;;;;5094106;28;20461;-72
2022/03/26 14:08:32;;;;;;;31.30;17.37;;;;;;;;;;5094124;28;20494;-72
2022/03/26 14:10:59;;;;;;;29.70;17.50;;;;;;;;;;5094593;28;21011;-72
2022/03/26 14:13:27;;;;;;;28.33;18.07;;;;;;;;;;5094044;28;20462;-72
2022/03/26 14:15:55;;;;;;;33.03;19.53;;;;;;;;;;5093931;28;20454;-72
2022/03/26 14:18:22;;;;;;;28.20;17.70;;;;;;;;;;5094155;28;20829;-72
2022/03/26 14:20:51;;;;;;;29.43;17.90;;;;;;;;;;5093910;28;20450;-72
2022/03/26 14:23:20;;;;;;;31.07;18.37;;;;;;;;;;5093565;28;20879;-72
2022/03/26 14:25:47;;;;;;;29.23;17.90;;;;;;;;;;5093458;28;20553;-72
2022/03/26 14:28:14;;;;;;;25.20;15.93;;;;;;;;;;5093840;28;20490;-72
2022/03/26 14:30:43;;;;;;;49.27;20.37;;;;;;;;;;5093647;28;20596;-72